createdAt,value
2023-01-29T00:01:25.526Z,3.88
2023-01-29T00:03:28.818Z,3.89
2023-01-29T00:05:31.652Z,3.90
2023-01-29T00:07:37.725Z,3.91
2023-01-29T00:09:40.504Z,3.89
2023-01-29T00:11:43.579Z,3.86
2023-01-29T00:13:46.257Z,3.86
2023-01-29T00:15:55.934Z,3.91
2023-01-29T00:17:58.903Z,3.88
2023-01-29T00:20:01.590Z,3.89
2023-01-29T00:22:04.505Z,3.87
2023-01-29T00:24:08.969Z,3.83
2023-01-29T00:26:12.450Z,3.87
2023-01-29T00:28:16.247Z,3.88
2023-01-29T00:30:20.938Z,3.91
2023-01-29T00:32:23.727Z,3.89
2023-01-29T00:34:26.473Z,3.89
2023-01-29T00:36:29.229Z,3.88
2023-01-29T00:38:32.190Z,3.91
2023-01-29T00:40:52.587Z,3.87
2023-01-29T00:43:13.387Z,3.91
2023-01-29T00:45:16.449Z,3.93
2023-01-29T00:47:34.429Z,3.95
2023-01-29T00:49:37.135Z,3.90
2023-01-29T00:51:40.405Z,3.89
2023-01-29T00:53:43.205Z,3.89
2023-01-29T00:55:47.316Z,3.89
2023-01-29T00:57:50.382Z,3.87
2023-01-29T00:59:53.152Z,3.88
2023-01-29T01:02:13.307Z,3.89
2023-01-29T01:04:16.166Z,3.90
2023-01-29T01:06:19.037Z,3.92
2023-01-29T01:08:39.208Z,3.90
2023-01-29T01:10:41.931Z,3.91
2023-01-29T01:12:46.027Z,3.92
2023-01-29T01:14:49.118Z,3.92
2023-01-29T01:16:51.830Z,3.89
2023-01-29T01:18:54.539Z,3.91
2023-01-29T01:20:59.494Z,3.93
2023-01-29T01:23:02.289Z,3.92
2023-01-29T01:25:06.536Z,3.90
2023-01-29T01:27:09.536Z,3.91
2023-01-29T01:29:14.475Z,3.90
2023-01-29T01:31:17.327Z,3.89
2023-01-29T01:33:20.234Z,3.90
2023-01-29T01:35:22.922Z,3.90
2023-01-29T01:37:25.804Z,3.94
2023-01-29T01:39:28.973Z,3.96
2023-01-29T01:41:31.878Z,3.89
2023-01-29T01:43:49.295Z,3.90
2023-01-29T01:45:54.020Z,3.89
2023-01-29T01:48:02.050Z,3.86
2023-01-29T01:50:10.123Z,3.84
2023-01-29T01:52:14.595Z,3.84
2023-01-29T01:54:22.237Z,3.81
2023-01-29T01:56:29.100Z,3.81
2023-01-29T01:58:35.833Z,3.81
2023-01-29T02:00:39.940Z,3.84
2023-01-29T02:03:04.559Z,3.83
2023-01-29T02:05:26.933Z,3.80
2023-01-29T02:07:47.297Z,3.79
2023-01-29T02:09:53.452Z,3.83
2023-01-29T02:11:56.466Z,3.82
2023-01-29T02:13:59.552Z,3.80
2023-01-29T02:16:02.314Z,3.77
2023-01-29T02:18:06.599Z,3.72
2023-01-29T02:20:19.409Z,3.75
2023-01-29T02:22:55.234Z,3.82
2023-01-29T02:25:12.721Z,3.87
2023-01-29T02:27:18.716Z,3.93
2023-01-29T02:29:33.604Z,3.94
2023-01-29T02:31:42.155Z,3.98
2023-01-29T02:33:56.453Z,3.97
2023-01-29T02:36:05.708Z,3.98
2023-01-29T02:38:18.025Z,4.01
2023-01-29T02:40:30.331Z,4.00
2023-01-29T02:42:36.837Z,3.94
2023-01-29T02:44:44.915Z,3.91
2023-01-29T02:46:55.909Z,3.93
2023-01-29T02:49:03.120Z,3.96
2023-01-29T02:51:08.761Z,3.92
2023-01-29T02:53:15.889Z,3.90
2023-01-29T02:55:25.186Z,3.92
2023-01-29T02:57:30.878Z,3.98
2023-01-29T02:59:38.563Z,4.02
2023-01-29T03:01:48.583Z,4.08
2023-01-29T03:03:54.623Z,4.05
2023-01-29T03:06:06.219Z,4.07
2023-01-29T03:08:12.670Z,4.12
2023-01-29T03:10:19.683Z,4.08
2023-01-29T03:12:33.790Z,4.08
2023-01-29T03:14:54.137Z,4.05
2023-01-29T03:16:58.571Z,4.05
2023-01-29T03:19:06.395Z,4.02
2023-01-29T03:21:29.357Z,4.00
2023-01-29T03:23:53.681Z,4.01
2023-01-29T03:26:17.843Z,4.00
2023-01-29T03:28:40.315Z,4.00
2023-01-29T03:31:04.486Z,3.99
2023-01-29T03:33:12.199Z,3.99
2023-01-29T03:35:21.056Z,4.03
2023-01-29T03:37:30.932Z,4.07
2023-01-29T03:39:34.287Z,4.04
2023-01-29T03:41:39.731Z,4.06
2023-01-29T03:43:52.602Z,4.07
2023-01-29T03:46:04.914Z,4.08
2023-01-29T03:48:14.218Z,4.07
2023-01-29T03:50:31.973Z,4.09
2023-01-29T03:52:43.872Z,4.18
2023-01-29T03:54:54.974Z,4.17
2023-01-29T03:57:03.698Z,4.21
2023-01-29T03:59:17.125Z,4.18
2023-01-29T04:01:25.147Z,4.13
2023-01-29T04:03:35.084Z,4.08
2023-01-29T04:05:44.538Z,4.03
2023-01-29T04:07:49.130Z,4.04
2023-01-29T04:09:54.798Z,4.09
2023-01-29T04:12:05.501Z,4.16
2023-01-29T04:14:08.854Z,4.21
2023-01-29T04:16:18.486Z,4.23
2023-01-29T04:18:21.225Z,4.23
2023-01-29T04:20:25.965Z,4.25
2023-01-29T04:22:33.145Z,4.25
2023-01-29T04:24:36.220Z,4.31
2023-01-29T04:26:56.424Z,4.34
2023-01-29T04:29:17.540Z,4.34
2023-01-29T04:31:24.389Z,4.36
2023-01-29T04:33:35.411Z,4.38
2023-01-29T04:35:53.214Z,4.32
2023-01-29T04:38:07.361Z,4.32
2023-01-29T04:40:21.711Z,4.34
2023-01-29T04:42:32.143Z,4.44
2023-01-29T04:44:40.148Z,4.45
2023-01-29T04:46:50.647Z,4.44
2023-01-29T04:49:05.021Z,4.47
2023-01-29T04:51:15.199Z,4.46
2023-01-29T04:53:23.728Z,4.35
2023-01-29T04:55:33.943Z,4.26
2023-01-29T04:57:46.120Z,4.33
2023-01-29T04:59:53.487Z,4.39
2023-01-29T05:01:56.816Z,4.49
2023-01-29T05:04:03.408Z,4.53
2023-01-29T05:06:08.852Z,4.43
2023-01-29T05:08:16.846Z,4.40
2023-01-29T05:10:21.923Z,4.41
2023-01-29T05:12:28.218Z,4.42
2023-01-29T05:14:34.837Z,4.48
2023-01-29T05:16:43.641Z,4.53
2023-01-29T05:18:46.942Z,4.56
2023-01-29T05:20:51.205Z,4.50
2023-01-29T05:22:54.031Z,4.42
2023-01-29T05:24:58.090Z,4.38
2023-01-29T05:27:19.024Z,4.43
2023-01-29T05:29:21.981Z,4.46
2023-01-29T05:31:24.820Z,4.50
2023-01-29T05:33:29.557Z,4.58
2023-01-29T05:35:33.051Z,4.59
2023-01-29T05:37:35.908Z,4.54
2023-01-29T05:39:38.676Z,4.49
2023-01-29T05:41:42.697Z,4.46
2023-01-29T05:43:45.423Z,4.49
2023-01-29T05:45:53.528Z,4.52
2023-01-29T05:47:57.711Z,4.50
2023-01-29T05:50:00.485Z,4.52
2023-01-29T05:52:03.297Z,4.50
2023-01-29T05:54:06.121Z,4.45
2023-01-29T05:56:09.285Z,4.38
2023-01-29T05:58:13.840Z,4.36
2023-01-29T06:00:18.122Z,4.35
2023-01-29T06:02:21.324Z,4.32
2023-01-29T06:04:24.067Z,4.34
2023-01-29T06:06:26.734Z,4.34
2023-01-29T06:08:29.434Z,4.38
2023-01-29T06:10:32.095Z,4.43
2023-01-29T06:12:34.935Z,4.47
2023-01-29T06:14:39.118Z,4.44
2023-01-29T06:16:41.810Z,4.44
2023-01-29T06:18:44.644Z,4.39
2023-01-29T06:20:47.344Z,4.38
2023-01-29T06:22:50.063Z,4.38
2023-01-29T06:24:52.912Z,4.31
2023-01-29T06:26:55.756Z,4.28
2023-01-29T06:28:58.383Z,4.28
2023-01-29T06:31:22.046Z,4.27
2023-01-29T06:33:27.909Z,4.23
2023-01-29T06:35:30.723Z,4.20
2023-01-29T06:37:33.572Z,4.20
2023-01-29T06:39:36.590Z,4.18
2023-01-29T06:41:39.349Z,4.24
2023-01-29T06:43:45.254Z,4.24
2023-01-29T06:45:49.959Z,4.23
2023-01-29T06:47:54.062Z,4.28
2023-01-29T06:49:56.747Z,4.27
2023-01-29T06:51:59.506Z,4.27
2023-01-29T06:54:02.258Z,4.28
2023-01-29T06:56:05.662Z,4.33
2023-01-29T06:58:09.465Z,4.36
2023-01-29T07:00:13.470Z,4.43
2023-01-29T07:02:16.511Z,4.46
2023-01-29T07:04:20.804Z,4.42
2023-01-29T07:06:28.912Z,4.43
2023-01-29T07:08:32.018Z,4.46
2023-01-29T07:10:34.803Z,4.38
2023-01-29T07:12:37.490Z,4.36
2023-01-29T07:14:40.238Z,4.45
2023-01-29T07:16:42.989Z,4.49
2023-01-29T07:18:45.814Z,4.56
2023-01-29T07:20:49.825Z,4.59
2023-01-29T07:22:52.567Z,4.47
2023-01-29T07:24:55.412Z,4.49
2023-01-29T07:26:58.167Z,4.52
2023-01-29T07:29:00.999Z,4.54
2023-01-29T07:31:03.816Z,4.57
2023-01-29T07:33:08.627Z,4.55
2023-01-29T07:35:11.869Z,4.46
2023-01-29T07:37:15.976Z,4.42
2023-01-29T07:39:18.698Z,4.45
2023-01-29T07:41:21.569Z,4.48
2023-01-29T07:43:25.682Z,4.47
2023-01-29T07:45:28.448Z,4.44
2023-01-29T07:47:31.297Z,4.46
2023-01-29T07:49:33.976Z,4.54
2023-01-29T07:51:36.764Z,4.61
2023-01-29T07:53:40.989Z,4.71
2023-01-29T07:55:45.224Z,4.71
2023-01-29T07:57:48.159Z,4.72
2023-01-29T07:59:51.409Z,4.74
2023-01-29T08:01:54.384Z,4.70
2023-01-29T08:03:58.269Z,4.76
2023-01-29T08:06:01.189Z,4.85
2023-01-29T08:08:07.484Z,4.88
2023-01-29T08:10:12.740Z,4.93
2023-01-29T08:12:15.485Z,4.94
2023-01-29T08:14:18.391Z,4.97
2023-01-29T08:16:21.121Z,5.04
2023-01-29T08:18:23.852Z,5.11
2023-01-29T08:20:27.219Z,5.15
2023-01-29T08:22:30.025Z,5.20
2023-01-29T08:24:47.537Z,5.22
2023-01-29T08:26:57.360Z,5.25
2023-01-29T08:29:00.368Z,5.27
2023-01-29T08:31:03.205Z,5.28
2023-01-29T08:33:05.987Z,5.26
2023-01-29T08:35:09.396Z,5.24
2023-01-29T08:37:12.169Z,5.24
2023-01-29T08:39:14.947Z,5.23
2023-01-29T08:41:17.610Z,5.25
2023-01-29T08:43:21.663Z,5.26
2023-01-29T08:45:24.312Z,5.26
2023-01-29T08:47:28.602Z,5.31
2023-01-29T08:49:31.534Z,5.35
2023-01-29T08:51:34.319Z,5.39
2023-01-29T08:53:37.017Z,5.43
2023-01-29T08:55:41.205Z,5.44
2023-01-29T08:57:43.873Z,5.44
2023-01-29T08:59:47.908Z,5.43
2023-01-29T09:01:50.722Z,5.44
2023-01-29T09:03:53.371Z,5.48
2023-01-29T09:05:56.017Z,5.48
2023-01-29T09:07:59.308Z,5.47
2023-01-29T09:10:01.994Z,5.48
2023-01-29T09:12:05.402Z,5.50
2023-01-29T09:14:08.146Z,5.53
2023-01-29T09:16:12.336Z,5.54
2023-01-29T09:18:15.491Z,5.51
2023-01-29T09:20:19.453Z,5.45
2023-01-29T09:22:22.245Z,5.46
2023-01-29T09:24:25.113Z,5.48
2023-01-29T09:26:27.891Z,5.53
2023-01-29T09:28:30.725Z,5.54
2023-01-29T09:30:34.612Z,5.53
2023-01-29T09:32:54.900Z,5.54
2023-01-29T09:34:57.955Z,5.52
2023-01-29T09:37:00.820Z,5.52
2023-01-29T09:39:04.156Z,5.52
2023-01-29T09:41:16.136Z,5.53
2023-01-29T09:43:21.768Z,5.56
2023-01-29T09:45:25.870Z,5.60
2023-01-29T09:47:30.712Z,5.60
2023-01-29T09:49:41.612Z,5.59
2023-01-29T09:51:50.016Z,5.62
2023-01-29T09:54:00.760Z,5.64
2023-01-29T09:56:07.042Z,5.66
2023-01-29T09:58:17.651Z,5.68
2023-01-29T10:00:26.187Z,5.71
2023-01-29T10:02:57.324Z,5.71
2023-01-29T10:05:21.653Z,5.73
2023-01-29T10:08:01.381Z,5.72
2023-01-29T10:10:24.577Z,5.72
2023-01-29T10:12:53.723Z,5.73
2023-01-29T10:15:06.515Z,5.76
2023-01-29T10:17:20.270Z,5.76
2023-01-29T10:19:47.812Z,5.75
2023-01-29T10:22:22.435Z,5.75
2023-01-29T10:24:37.735Z,5.75
2023-01-29T10:26:41.502Z,5.75
2023-01-29T10:28:47.586Z,5.78
2023-01-29T10:30:51.801Z,5.80
2023-01-29T10:32:56.444Z,5.79
2023-01-29T10:35:03.788Z,5.78
2023-01-29T10:37:18.403Z,5.78
2023-01-29T10:39:22.959Z,5.82
2023-01-29T10:41:42.574Z,5.85
2023-01-29T10:43:56.301Z,5.88
2023-01-29T10:46:12.269Z,5.91
2023-01-29T10:48:41.660Z,5.93
2023-01-29T10:50:51.700Z,5.95
2023-01-29T10:53:14.377Z,5.95
2023-01-29T10:55:31.685Z,5.94
2023-01-29T10:57:55.352Z,5.94
2023-01-29T11:00:07.312Z,5.93
2023-01-29T11:02:18.268Z,5.93
2023-01-29T11:04:21.082Z,5.96
2023-01-29T11:06:26.178Z,5.94
2023-01-29T11:08:35.717Z,5.93
2023-01-29T11:10:45.024Z,5.95
2023-01-29T11:12:48.134Z,5.98
2023-01-29T11:14:56.488Z,5.97
2023-01-29T11:16:59.999Z,5.94
2023-01-29T11:19:02.714Z,5.92
2023-01-29T11:21:06.615Z,5.91
2023-01-29T11:23:26.397Z,5.92
2023-01-29T11:25:32.556Z,5.95
2023-01-29T11:27:40.697Z,5.93
2023-01-29T11:29:45.877Z,5.97
2023-01-29T11:31:49.597Z,6.01
2023-01-29T11:33:55.103Z,6.05
2023-01-29T11:35:58.966Z,6.04
2023-01-29T11:38:09.738Z,6.01
2023-01-29T11:40:37.413Z,6.01
2023-01-29T11:42:40.423Z,6.05
2023-01-29T11:44:44.482Z,6.08
2023-01-29T11:46:47.952Z,6.08
2023-01-29T11:48:59.076Z,6.11
2023-01-29T11:51:11.257Z,6.14
2023-01-29T11:53:28.130Z,6.15
2023-01-29T11:55:48.580Z,6.15
2023-01-29T11:57:59.473Z,6.15
2023-01-29T12:00:06.510Z,6.17
2023-01-29T12:02:26.486Z,6.19
2023-01-29T12:04:29.535Z,6.18
2023-01-29T12:06:36.498Z,6.20
2023-01-29T12:08:40.560Z,6.18
2023-01-29T12:10:43.743Z,6.21
2023-01-29T12:12:46.557Z,6.17
2023-01-29T12:15:04.555Z,6.15
2023-01-29T12:17:14.825Z,6.17
2023-01-29T12:19:26.709Z,6.17
2023-01-29T12:21:36.746Z,6.20
2023-01-29T12:23:48.542Z,6.23
2023-01-29T12:26:01.631Z,6.23
2023-01-29T12:28:11.433Z,6.25
2023-01-29T12:30:22.672Z,6.24
2023-01-29T12:32:33.643Z,6.23
2023-01-29T12:34:45.506Z,6.25
2023-01-29T12:36:53.242Z,6.29
2023-01-29T12:38:56.601Z,6.32
2023-01-29T12:41:06.280Z,6.31
2023-01-29T12:43:16.741Z,6.33
2023-01-29T12:45:24.413Z,6.33
2023-01-29T12:47:32.315Z,6.36
2023-01-29T12:49:39.183Z,6.38
2023-01-29T12:51:50.607Z,6.39
2023-01-29T12:53:58.619Z,6.36
2023-01-29T12:56:05.277Z,6.39
2023-01-29T12:58:13.693Z,6.42
2023-01-29T13:00:23.023Z,6.39
2023-01-29T13:02:33.909Z,6.39
2023-01-29T13:04:41.205Z,6.39
2023-01-29T13:06:49.166Z,6.41
2023-01-29T13:08:55.216Z,6.42
2023-01-29T13:11:02.518Z,6.45
2023-01-29T13:13:13.544Z,6.47
2023-01-29T13:15:25.664Z,6.48
2023-01-29T13:17:34.100Z,6.45
2023-01-29T13:19:41.239Z,6.41
2023-01-29T13:21:45.584Z,6.42
2023-01-29T13:23:51.324Z,6.41
2023-01-29T13:25:55.601Z,6.38
2023-01-29T13:27:58.993Z,6.36
2023-01-29T13:30:02.532Z,6.35
2023-01-29T13:32:07.039Z,6.35
2023-01-29T13:34:15.597Z,6.33
2023-01-29T13:36:24.307Z,6.34
2023-01-29T13:38:32.206Z,6.35
2023-01-29T13:40:35.706Z,6.36
2023-01-29T13:42:44.329Z,6.37
2023-01-29T13:44:50.686Z,6.39
2023-01-29T13:46:57.354Z,6.39
2023-01-29T13:49:05.001Z,6.41
2023-01-29T13:51:15.576Z,6.40
2023-01-29T13:53:24.049Z,6.43
2023-01-29T13:55:32.259Z,6.42
2023-01-29T13:57:54.679Z,6.39
2023-01-29T13:59:59.008Z,6.38
2023-01-29T14:02:04.822Z,6.40
2023-01-29T14:04:25.439Z,6.40
2023-01-29T14:06:49.844Z,6.42
2023-01-29T14:08:52.522Z,6.43
2023-01-29T14:11:34.623Z,6.45
2023-01-29T14:13:37.459Z,6.44
2023-01-29T14:15:40.479Z,6.41
2023-01-29T14:17:55.950Z,6.40
2023-01-29T14:20:04.202Z,6.39
2023-01-29T14:22:07.073Z,6.41
2023-01-29T14:24:17.263Z,6.40
2023-01-29T14:26:24.383Z,6.39
2023-01-29T14:28:31.050Z,6.36
2023-01-29T14:30:36.155Z,6.33
2023-01-29T14:32:41.463Z,6.34
2023-01-29T14:34:47.676Z,6.34
2023-01-29T14:36:56.168Z,6.32
2023-01-29T14:39:00.530Z,6.33
2023-01-29T14:41:15.627Z,6.34
2023-01-29T14:43:21.710Z,6.32
2023-01-29T14:45:27.576Z,6.31
2023-01-29T14:47:55.450Z,6.37
2023-01-29T14:49:59.255Z,6.41
2023-01-29T14:52:03.907Z,6.22
2023-01-29T14:54:18.389Z,5.98
2023-01-29T14:56:28.401Z,5.89
2023-01-29T14:58:38.148Z,5.84
2023-01-29T15:00:44.696Z,5.71
2023-01-29T15:02:47.881Z,5.59
2023-01-29T15:04:55.771Z,5.58
2023-01-29T15:07:05.424Z,5.55
2023-01-29T15:09:18.654Z,5.55
2023-01-29T15:11:34.833Z,5.58
2023-01-29T15:13:45.446Z,5.58
2023-01-29T15:15:53.527Z,5.54
2023-01-29T15:18:00.787Z,5.45
2023-01-29T15:20:03.608Z,5.44
2023-01-29T15:22:11.093Z,5.45
2023-01-29T15:24:14.735Z,5.51
2023-01-29T15:26:20.702Z,5.57
2023-01-29T15:28:23.665Z,5.60
2023-01-29T15:30:32.902Z,5.64
2023-01-29T15:32:38.633Z,5.66
2023-01-29T15:34:43.701Z,5.67
2023-01-29T15:36:49.313Z,5.69
2023-01-29T15:39:18.802Z,5.70
2023-01-29T15:41:24.192Z,5.74
2023-01-29T15:43:28.743Z,5.78
2023-01-29T15:45:33.500Z,5.82
2023-01-29T15:47:37.493Z,5.84
2023-01-29T15:49:41.476Z,5.85
2023-01-29T15:51:44.554Z,5.87
2023-01-29T15:53:51.713Z,5.89
2023-01-29T15:55:59.889Z,5.89
2023-01-29T15:58:02.833Z,5.88
2023-01-29T16:00:08.635Z,5.90
2023-01-29T16:02:29.196Z,5.90
2023-01-29T16:04:32.577Z,5.92
2023-01-29T16:06:39.099Z,5.92
2023-01-29T16:08:44.969Z,5.89
2023-01-29T16:10:51.784Z,5.88
2023-01-29T16:12:57.356Z,5.88
2023-01-29T16:15:04.857Z,5.89
2023-01-29T16:17:25.667Z,5.90
2023-01-29T16:19:30.272Z,5.91
2023-01-29T16:21:37.431Z,5.89
2023-01-29T16:23:44.935Z,5.89
2023-01-29T16:25:50.079Z,5.85
2023-01-29T16:27:53.091Z,5.84
2023-01-29T16:29:57.171Z,5.82
2023-01-29T16:32:02.369Z,5.82
2023-01-29T16:34:10.046Z,5.84
2023-01-29T16:36:17.868Z,5.82
2023-01-29T16:38:28.846Z,5.74
2023-01-29T16:40:34.300Z,5.75
2023-01-29T16:42:37.776Z,5.74
2023-01-29T16:44:41.642Z,5.69
2023-01-29T16:46:48.568Z,5.71
2023-01-29T16:48:52.048Z,5.70
2023-01-29T16:51:05.649Z,5.69
2023-01-29T16:53:13.761Z,5.67
2023-01-29T16:55:22.698Z,5.66
2023-01-29T16:57:28.570Z,5.66
2023-01-29T16:59:35.141Z,5.63
2023-01-29T17:01:37.939Z,5.63
2023-01-29T17:03:42.778Z,5.61
2023-01-29T17:05:46.558Z,5.61
2023-01-29T17:07:49.574Z,5.61
2023-01-29T17:09:55.570Z,5.61
2023-01-29T17:12:01.603Z,5.60
2023-01-29T17:14:06.577Z,5.60
2023-01-29T17:16:21.840Z,5.59
2023-01-29T17:18:25.880Z,5.58
2023-01-29T17:20:31.404Z,5.57
2023-01-29T17:22:34.083Z,5.57
2023-01-29T17:24:36.763Z,5.57
2023-01-29T17:26:40.502Z,5.55
2023-01-29T17:28:44.351Z,5.53
2023-01-29T17:31:00.122Z,5.55
2023-01-29T17:33:13.340Z,5.53
2023-01-29T17:35:17.583Z,5.54
2023-01-29T17:37:21.995Z,5.53
2023-01-29T17:39:25.575Z,5.52
2023-01-29T17:41:31.129Z,5.51
2023-01-29T17:43:33.920Z,5.50
2023-01-29T17:45:36.755Z,5.52
2023-01-29T17:47:39.580Z,5.52
2023-01-29T17:49:43.106Z,5.52
2023-01-29T17:51:46.050Z,5.52
2023-01-29T17:53:50.137Z,5.51
2023-01-29T17:55:53.027Z,5.51
2023-01-29T17:57:55.810Z,5.51
2023-01-29T17:59:58.540Z,5.50
2023-01-29T18:02:01.247Z,5.49
2023-01-29T18:04:04.160Z,5.51
2023-01-29T18:06:09.029Z,5.50
2023-01-29T18:08:17.681Z,5.49
2023-01-29T18:10:22.997Z,5.49
2023-01-29T18:12:25.903Z,5.51
2023-01-29T18:14:28.566Z,5.49
2023-01-29T18:16:37.080Z,5.47
2023-01-29T18:18:40.289Z,5.45
2023-01-29T18:20:44.929Z,5.44
2023-01-29T18:22:48.043Z,5.43
2023-01-29T18:24:50.722Z,5.42
2023-01-29T18:26:54.995Z,5.41
2023-01-29T18:29:00.547Z,5.40
2023-01-29T18:31:03.620Z,5.40
2023-01-29T18:33:06.471Z,5.40
2023-01-29T18:35:10.372Z,5.40
2023-01-29T18:37:13.210Z,5.39
2023-01-29T18:39:16.159Z,5.36
2023-01-29T18:41:21.572Z,5.37
2023-01-29T18:43:26.349Z,5.34
2023-01-29T18:45:32.398Z,5.34
2023-01-29T18:47:35.435Z,5.35
2023-01-29T18:49:39.132Z,5.34
2023-01-29T18:51:42.161Z,5.33
2023-01-29T18:53:46.558Z,5.34
2023-01-29T18:55:56.178Z,5.36
2023-01-29T18:58:25.219Z,5.36
2023-01-29T19:00:25.416Z,5.35
2023-01-29T19:02:28.202Z,5.35
2023-01-29T19:04:31.008Z,5.35
2023-01-29T19:06:35.685Z,5.35
2023-01-29T19:08:40.827Z,5.34
2023-01-29T19:10:43.654Z,5.33
2023-01-29T19:12:46.487Z,5.32
2023-01-29T19:14:49.178Z,5.32
2023-01-29T19:16:53.288Z,5.31
2023-01-29T19:18:56.646Z,5.31
2023-01-29T19:20:59.365Z,5.30
2023-01-29T19:23:02.010Z,5.31
2023-01-29T19:25:05.194Z,5.31
2023-01-29T19:27:07.868Z,5.30
2023-01-29T19:29:11.343Z,5.32
2023-01-29T19:31:14.207Z,5.30
2023-01-29T19:33:18.309Z,5.29
2023-01-29T19:35:21.065Z,5.28
2023-01-29T19:37:23.730Z,5.25
2023-01-29T19:39:29.893Z,5.24
2023-01-29T19:41:33.315Z,5.22
2023-01-29T19:43:38.146Z,5.20
2023-01-29T19:45:50.478Z,5.21
2023-01-29T19:47:55.319Z,5.21
2023-01-29T19:49:59.477Z,5.23
2023-01-29T19:52:02.308Z,5.23
2023-01-29T19:54:05.288Z,5.21
2023-01-29T19:56:10.275Z,5.21
2023-01-29T19:58:13.838Z,5.21
2023-01-29T20:00:18.065Z,5.21
2023-01-29T20:02:20.855Z,5.22
2023-01-29T20:04:23.571Z,5.20
2023-01-29T20:06:30.972Z,5.18
2023-01-29T20:08:35.616Z,5.18
2023-01-29T20:10:38.503Z,5.18
2023-01-29T20:12:41.226Z,5.19
2023-01-29T20:14:48.768Z,5.20
2023-01-29T20:16:51.472Z,5.19
2023-01-29T20:18:54.183Z,5.19
2023-01-29T20:20:57.129Z,5.17
2023-01-29T20:23:02.094Z,5.18
2023-01-29T20:25:05.191Z,5.16
2023-01-29T20:27:07.960Z,5.16
2023-01-29T20:29:11.410Z,5.14
2023-01-29T20:31:14.283Z,5.13
2023-01-29T20:33:16.970Z,5.11
2023-01-29T20:35:19.712Z,5.09
2023-01-29T20:37:22.487Z,5.09
2023-01-29T20:39:26.657Z,5.08
2023-01-29T20:41:30.056Z,5.07
2023-01-29T20:43:32.905Z,5.07
2023-01-29T20:45:36.033Z,5.06
2023-01-29T20:47:38.897Z,5.04
2023-01-29T20:49:41.591Z,5.04
2023-01-29T20:51:44.367Z,5.02
2023-01-29T20:53:48.465Z,5.01
2023-01-29T20:55:53.120Z,5.02
2023-01-29T20:58:05.128Z,5.04
2023-01-29T21:00:10.700Z,5.04
2023-01-29T21:02:13.383Z,5.03
2023-01-29T21:04:16.969Z,5.01
2023-01-29T21:06:19.639Z,5.01
2023-01-29T21:08:22.429Z,5.00
2023-01-29T21:10:25.236Z,5.00
2023-01-29T21:12:29.319Z,4.98
2023-01-29T21:14:32.330Z,4.98
2023-01-29T21:16:35.151Z,4.98
2023-01-29T21:18:37.988Z,4.97
2023-01-29T21:20:40.659Z,4.97
2023-01-29T21:22:44.113Z,4.97
2023-01-29T21:24:46.781Z,4.94
2023-01-29T21:26:49.689Z,4.91
2023-01-29T21:28:53.828Z,4.92
2023-01-29T21:31:04.316Z,4.93
2023-01-29T21:33:07.025Z,4.94
2023-01-29T21:35:11.280Z,4.90
2023-01-29T21:37:14.208Z,4.89
2023-01-29T21:39:20.988Z,4.90
